Terminal Aerodrome Forecast
Issued by NWS

Home | Current Version | Previous Version | Text Only | Print | Product List | Glossary On
Versions: 1 2 3 4 5 6 7 8 9 10 11 12 13 14 15 16 17 18 19 20 21 22
682
FTUS43 KGRB 222041 AAA
TAFAUW
TAF AMD
KAUW 222041Z 2221/2318 29003KT P6SM OVC006
     FM230100 29003KT 2SM -DZ BR OVC003
     FM230500 VRB03KT 1/4SM FG OVC002
     FM231500 32004KT 1SM BR OVC003
     FM231700 33005KT 3SM BR OVC006=

USA.gov is the U.S. government's official web portal to all federal, state and local government web resources and services.